createdAt,value
2022-12-22T00:01:06.568Z,35.50
2022-12-22T00:03:53.974Z,34.60
2022-12-22T00:06:39.444Z,30.57
2022-12-22T00:09:24.993Z,37.27
2022-12-22T00:12:10.488Z,38.80
2022-12-22T00:14:55.830Z,34.23
2022-12-22T00:17:47.046Z,29.90
2022-12-22T00:20:37.681Z,32.67
2022-12-22T00:23:30.853Z,32.07
2022-12-22T00:26:17.512Z,35.80
2022-12-22T00:29:02.918Z,32.33
2022-12-22T00:31:48.619Z,28.57
2022-12-22T00:34:39.296Z,25.17
2022-12-22T00:37:24.656Z,24.10
2022-12-22T00:40:10.043Z,30.47
2022-12-22T00:42:55.485Z,23.17
2022-12-22T00:45:41.014Z,28.50
2022-12-22T00:48:38.351Z,28.13
2022-12-22T00:51:23.637Z,30.93
2022-12-22T00:54:09.679Z,29.43
2022-12-22T00:56:54.936Z,29.90
2022-12-22T00:59:40.380Z,25.77
2022-12-22T01:02:28.915Z,31.00
2022-12-22T01:05:14.371Z,28.40
2022-12-22T01:07:59.611Z,28.13
2022-12-22T01:10:45.423Z,31.60
2022-12-22T01:13:32.817Z,30.07
2022-12-22T01:16:18.718Z,30.47
2022-12-22T01:19:04.010Z,32.20
2022-12-22T01:21:49.970Z,28.33
2022-12-22T01:24:37.021Z,30.23
2022-12-22T01:27:23.243Z,28.00
2022-12-22T01:30:08.783Z,28.80
2022-12-22T01:32:54.081Z,27.63
2022-12-22T01:35:44.925Z,30.53
2022-12-22T01:38:30.584Z,28.17
2022-12-22T01:41:17.099Z,28.13
2022-12-22T01:44:02.422Z,28.77
2022-12-22T01:46:54.860Z,25.73
2022-12-22T01:49:44.600Z,28.60
2022-12-22T01:52:32.213Z,26.13
2022-12-22T01:55:22.405Z,27.00
2022-12-22T01:58:07.830Z,29.33
2022-12-22T02:00:53.148Z,27.30
2022-12-22T02:03:41.233Z,30.17
2022-12-22T02:06:41.696Z,31.00
2022-12-22T02:09:34.575Z,27.17
2022-12-22T02:12:27.440Z,31.10
2022-12-22T02:15:20.653Z,26.43
2022-12-22T02:18:16.549Z,28.23
2022-12-22T02:21:08.537Z,25.53
2022-12-22T02:23:59.893Z,27.97
2022-12-22T02:26:57.385Z,27.87
2022-12-22T02:30:12.550Z,27.63
2022-12-22T02:33:05.370Z,28.67
2022-12-22T02:36:20.991Z,24.73
2022-12-22T02:39:15.825Z,25.37
2022-12-22T02:42:15.324Z,27.15
2022-12-22T02:45:10.047Z,29.40
2022-12-22T02:48:06.828Z,27.70
2022-12-22T02:51:04.862Z,29.33
2022-12-22T02:53:50.528Z,29.03
2022-12-22T02:56:35.793Z,27.10
2022-12-22T02:59:21.075Z,24.73
2022-12-22T03:02:06.579Z,27.07
2022-12-22T03:04:52.030Z,24.90
2022-12-22T03:07:37.262Z,25.17
2022-12-22T03:10:24.652Z,27.37
2022-12-22T03:13:09.963Z,27.00
2022-12-22T03:15:55.426Z,26.17
2022-12-22T03:18:40.794Z,26.40
2022-12-22T03:21:26.038Z,28.00
2022-12-22T03:24:11.458Z,26.27
2022-12-22T03:26:39.103Z,22.10
2022-12-22T03:29:05.740Z,27.97
2022-12-22T03:31:32.576Z,26.23
2022-12-22T03:33:59.306Z,24.60
2022-12-22T03:36:25.896Z,23.87
2022-12-22T03:38:52.564Z,26.33
2022-12-22T03:41:37.854Z,27.67
2022-12-22T03:44:23.133Z,27.90
2022-12-22T03:46:49.829Z,26.50
2022-12-22T03:49:16.515Z,23.90
2022-12-22T03:51:48.905Z,23.30
2022-12-22T03:54:18.605Z,26.60
2022-12-22T03:56:45.695Z,27.90
2022-12-22T03:59:15.743Z,22.47
2022-12-22T04:01:45.516Z,25.00
2022-12-22T04:04:14.064Z,26.57
2022-12-22T04:06:41.328Z,26.53
2022-12-22T04:09:08.013Z,27.07
2022-12-22T04:11:53.320Z,22.83
2022-12-22T04:14:20.758Z,26.30
2022-12-22T04:16:47.798Z,28.63
2022-12-22T04:19:14.709Z,27.40
2022-12-22T04:21:41.406Z,22.97
2022-12-22T04:24:08.426Z,25.33
2022-12-22T04:26:35.297Z,29.40
2022-12-22T04:29:02.057Z,21.33
2022-12-22T04:31:28.948Z,26.87
2022-12-22T04:33:55.581Z,29.47
2022-12-22T04:36:22.258Z,45.70
2022-12-22T04:38:48.893Z,27.00
2022-12-22T04:41:15.614Z,19.90
2022-12-22T04:43:42.244Z,22.50
2022-12-22T04:46:08.949Z,20.97
2022-12-22T04:48:35.922Z,25.77
2022-12-22T04:51:03.385Z,24.93
2022-12-22T04:53:30.722Z,25.83
2022-12-22T04:56:03.025Z,27.27
2022-12-22T04:58:29.924Z,21.87
2022-12-22T05:00:56.715Z,26.67
2022-12-22T05:03:23.871Z,26.37
2022-12-22T05:05:50.648Z,28.23
2022-12-22T05:08:17.231Z,25.37
2022-12-22T05:10:43.840Z,27.60
2022-12-22T05:13:10.520Z,25.77
2022-12-22T05:15:37.549Z,26.40
2022-12-22T05:18:04.658Z,23.43
2022-12-22T05:20:31.348Z,27.13
2022-12-22T05:22:58.649Z,26.73
2022-12-22T05:25:28.536Z,29.83
2022-12-22T05:27:58.174Z,25.97
2022-12-22T05:30:24.933Z,28.13
2022-12-22T05:32:51.585Z,27.70
2022-12-22T05:35:18.212Z,31.53
2022-12-22T05:37:44.829Z,25.00
2022-12-22T05:40:12.052Z,25.63
2022-12-22T05:42:39.423Z,25.83
2022-12-22T05:45:13.352Z,27.50
2022-12-22T05:47:39.991Z,26.27
2022-12-22T05:50:08.128Z,28.47
2022-12-22T05:52:34.825Z,27.73
2022-12-22T05:55:01.530Z,28.83
2022-12-22T05:57:28.217Z,24.53
2022-12-22T05:59:54.939Z,29.47
2022-12-22T06:02:21.791Z,29.53
2022-12-22T06:04:48.705Z,31.23
2022-12-22T06:07:15.383Z,26.03
2022-12-22T06:09:42.004Z,28.00
2022-12-22T06:12:09.063Z,27.13
2022-12-22T06:14:35.764Z,25.93
2022-12-22T06:17:02.486Z,28.77
2022-12-22T06:19:29.162Z,27.30
2022-12-22T06:21:55.843Z,25.90
2022-12-22T06:24:22.506Z,28.70
2022-12-22T06:26:49.122Z,29.50
2022-12-22T06:29:15.780Z,27.53
2022-12-22T06:31:42.740Z,26.60
2022-12-22T06:34:10.407Z,29.23
2022-12-22T06:36:38.936Z,27.60
2022-12-22T06:39:06.428Z,27.03
2022-12-22T06:41:51.855Z,25.27
2022-12-22T06:44:18.622Z,28.77
2022-12-22T06:46:45.306Z,26.23
2022-12-22T06:49:12.137Z,30.00
2022-12-22T06:51:38.802Z,23.80
2022-12-22T06:54:05.510Z,26.27
2022-12-22T06:56:32.228Z,27.97
2022-12-22T06:58:58.866Z,28.07
2022-12-22T07:01:25.649Z,26.40
2022-12-22T07:03:52.473Z,29.60
2022-12-22T07:06:19.260Z,29.10
2022-12-22T07:08:47.065Z,28.47
2022-12-22T07:11:14.848Z,25.23
2022-12-22T07:13:41.851Z,26.00
2022-12-22T07:16:10.314Z,26.73
2022-12-22T07:18:41.458Z,27.73
2022-12-22T07:21:10.895Z,28.47
2022-12-22T07:23:37.962Z,27.70
2022-12-22T07:26:05.976Z,26.00
2022-12-22T07:28:34.305Z,24.03
2022-12-22T07:31:01.061Z,26.77
2022-12-22T07:33:27.897Z,29.10
2022-12-22T07:36:05.717Z,23.83
2022-12-22T07:38:36.902Z,30.23
2022-12-22T07:41:05.550Z,27.80
2022-12-22T07:43:32.398Z,25.00
2022-12-22T07:45:59.009Z,26.30
2022-12-22T07:48:44.417Z,28.27
2022-12-22T07:51:11.148Z,28.27
2022-12-22T07:53:39.960Z,27.50
2022-12-22T07:56:07.014Z,26.93
2022-12-22T07:58:33.691Z,28.40
2022-12-22T08:01:01.321Z,28.97
2022-12-22T08:03:28.203Z,27.47
2022-12-22T08:05:54.912Z,29.30
2022-12-22T08:08:21.589Z,28.73
2022-12-22T08:10:48.182Z,30.83
2022-12-22T08:13:14.925Z,29.93
2022-12-22T08:15:41.629Z,31.07
2022-12-22T08:18:08.311Z,30.63
2022-12-22T08:20:35.164Z,27.93
2022-12-22T08:23:01.861Z,29.67
2022-12-22T08:25:29.510Z,27.20
2022-12-22T08:27:56.963Z,29.17
2022-12-22T08:30:23.777Z,28.57
2022-12-22T08:32:51.160Z,31.47
2022-12-22T08:35:18.515Z,34.37
2022-12-22T08:37:46.138Z,30.77
2022-12-22T08:40:16.280Z,33.53
2022-12-22T08:42:43.082Z,30.87
2022-12-22T08:45:11.366Z,31.50
2022-12-22T08:47:38.150Z,36.13
2022-12-22T08:50:05.451Z,33.43
2022-12-22T08:52:32.086Z,39.23
2022-12-22T08:54:58.718Z,32.20
2022-12-22T08:57:25.333Z,36.23
2022-12-22T08:59:51.935Z,36.20
2022-12-22T09:02:18.679Z,35.20
2022-12-22T09:04:45.548Z,34.63
2022-12-22T09:07:12.287Z,40.20
2022-12-22T09:09:38.881Z,36.87
2022-12-22T09:12:05.733Z,36.87
2022-12-22T09:14:32.850Z,34.97
2022-12-22T09:17:00.010Z,36.50
2022-12-22T09:19:26.684Z,34.30
2022-12-22T09:21:53.341Z,34.43
2022-12-22T09:24:19.982Z,33.03
2022-12-22T09:26:46.761Z,40.47
2022-12-22T09:29:15.455Z,35.10
2022-12-22T09:31:43.119Z,44.63
2022-12-22T09:34:16.766Z,43.90
2022-12-22T09:36:44.971Z,42.27
2022-12-22T09:39:11.724Z,41.40
2022-12-22T09:41:52.941Z,38.80
2022-12-22T09:44:22.741Z,61.70
2022-12-22T09:46:49.998Z,48.67
2022-12-22T09:49:18.640Z,44.90
2022-12-22T09:51:48.580Z,41.17
2022-12-22T09:54:16.209Z,40.60
2022-12-22T09:56:42.895Z,42.73
2022-12-22T09:59:17.754Z,39.53
2022-12-22T10:02:02.319Z,37.00
2022-12-22T10:07:13.531Z,34.27
2022-12-22T10:09:55.498Z,37.70
2022-12-22T10:12:26.383Z,35.47
2022-12-22T10:14:54.004Z,36.53
2022-12-22T10:17:29.522Z,40.50
2022-12-22T10:20:21.771Z,33.07
2022-12-22T10:23:05.066Z,39.17
2022-12-22T10:26:00.544Z,37.10
2022-12-22T10:28:33.893Z,35.47
2022-12-22T10:31:19.651Z,39.10
2022-12-22T10:33:48.775Z,34.33
2022-12-22T10:36:21.045Z,35.23
2022-12-22T10:38:58.452Z,38.63
2022-12-22T10:41:28.014Z,38.30
2022-12-22T10:43:59.794Z,33.03
2022-12-22T10:46:49.916Z,33.73
2022-12-22T10:52:17.080Z,36.53
2022-12-22T10:54:45.072Z,35.67
2022-12-22T10:57:14.829Z,34.73
2022-12-22T10:59:48.748Z,30.00
2022-12-22T11:02:38.215Z,30.77
2022-12-22T11:05:08.208Z,53.20
2022-12-22T11:07:40.268Z,31.97
2022-12-22T11:10:31.866Z,31.70
2022-12-22T11:13:02.801Z,34.37
2022-12-22T11:15:57.839Z,34.93
2022-12-22T11:18:39.516Z,32.33
2022-12-22T11:21:24.824Z,28.37
2022-12-22T11:23:51.444Z,30.77
2022-12-22T11:26:36.852Z,33.60
2022-12-22T11:29:32.707Z,27.03
2022-12-22T11:32:21.595Z,27.30
2022-12-22T11:35:00.655Z,24.67
2022-12-22T11:37:31.810Z,27.40
2022-12-22T11:40:06.580Z,27.20
2022-12-22T11:43:11.243Z,24.63
2022-12-22T11:46:32.356Z,21.05
2022-12-22T11:49:14.667Z,23.87
2022-12-22T11:52:00.290Z,24.07
2022-12-22T11:54:45.441Z,20.77
2022-12-22T11:57:22.860Z,38.63
2022-12-22T12:00:11.704Z,28.57
2022-12-22T12:03:06.005Z,27.50
2022-12-22T12:06:01.093Z,28.75
2022-12-22T12:08:50.370Z,31.90
2022-12-22T12:11:27.433Z,34.70
2022-12-22T12:14:13.605Z,40.07
2022-12-22T12:16:44.502Z,34.70
2022-12-22T12:19:46.044Z,32.10
2022-12-22T12:22:37.688Z,30.00
2022-12-22T12:25:19.824Z,28.77
2022-12-22T12:28:08.258Z,26.60
2022-12-22T12:30:48.550Z,27.98
2022-12-22T12:33:30.962Z,24.87
2022-12-22T12:36:20.075Z,24.87
2022-12-22T12:39:08.870Z,26.93
2022-12-22T12:42:09.998Z,29.50
2022-12-22T12:44:37.107Z,30.43
2022-12-22T12:47:22.036Z,31.43
2022-12-22T12:49:58.915Z,28.83
2022-12-22T12:52:40.746Z,26.83
2022-12-22T12:55:32.638Z,28.87
2022-12-22T12:58:02.179Z,31.07
2022-12-22T13:00:31.895Z,29.40
2022-12-22T13:03:52.973Z,32.67
2022-12-22T13:06:57.131Z,26.50
2022-12-22T13:12:34.130Z,24.00
2022-12-22T13:15:01.891Z,26.17
2022-12-22T13:17:38.444Z,28.07
2022-12-22T13:20:06.549Z,26.67
2022-12-22T13:22:33.394Z,30.93
2022-12-22T13:25:02.175Z,46.67
2022-12-22T13:27:28.967Z,42.53
2022-12-22T13:29:55.622Z,33.67
2022-12-22T13:32:28.920Z,25.73
2022-12-22T13:35:30.837Z,31.07
2022-12-22T13:37:59.020Z,33.60
2022-12-22T13:40:28.365Z,34.27
2022-12-22T13:42:58.061Z,27.30
2022-12-22T13:45:32.073Z,31.67
2022-12-22T13:48:00.911Z,31.40
2022-12-22T13:50:41.860Z,26.63
2022-12-22T13:53:10.004Z,28.27
2022-12-22T13:55:37.239Z,33.30
2022-12-22T13:58:24.167Z,39.20
2022-12-22T14:01:17.200Z,33.10
2022-12-22T14:04:04.110Z,23.57
2022-12-22T14:06:36.026Z,25.23
2022-12-22T14:09:23.239Z,26.27
2022-12-22T14:11:58.018Z,29.10
2022-12-22T14:14:27.827Z,27.13
2022-12-22T14:16:57.684Z,26.43
2022-12-22T14:19:25.114Z,26.20
2022-12-22T14:22:03.626Z,25.63
2022-12-22T14:24:38.020Z,24.30
2022-12-22T14:27:06.281Z,23.23
2022-12-22T14:29:32.984Z,21.37
2022-12-22T14:32:02.041Z,23.37
2022-12-22T14:35:06.850Z,22.20
2022-12-22T14:37:40.681Z,25.05
2022-12-22T14:40:14.929Z,26.35
2022-12-22T14:45:15.664Z,16.60
2022-12-22T14:47:42.337Z,16.60
2022-12-22T14:50:23.773Z,16.67
2022-12-22T14:52:53.057Z,14.90
2022-12-22T14:55:35.273Z,14.63
2022-12-22T14:58:32.693Z,15.17
2022-12-22T15:01:25.054Z,17.93
2022-12-22T15:04:16.804Z,18.80
2022-12-22T15:06:46.020Z,16.00
2022-12-22T15:09:15.706Z,15.23
2022-12-22T15:11:48.264Z,15.97
2022-12-22T15:14:18.015Z,18.00
2022-12-22T15:16:45.570Z,16.77
2022-12-22T15:19:14.495Z,16.07
2022-12-22T15:21:41.203Z,18.53
2022-12-22T15:24:16.825Z,16.60
2022-12-22T15:26:43.930Z,15.93
2022-12-22T15:29:11.022Z,15.37
2022-12-22T15:31:38.638Z,17.33
2022-12-22T15:34:11.739Z,15.40
2022-12-22T15:36:38.365Z,15.63
2022-12-22T15:39:04.987Z,14.07
2022-12-22T15:41:31.587Z,15.23
2022-12-22T15:43:59.153Z,13.93
2022-12-22T15:46:26.240Z,13.53
2022-12-22T15:48:53.108Z,13.00
2022-12-22T15:51:25.064Z,14.03
2022-12-22T15:53:52.089Z,17.10
2022-12-22T15:56:22.542Z,15.13
2022-12-22T15:58:49.375Z,15.47
2022-12-22T16:01:16.176Z,14.83
2022-12-22T16:03:43.078Z,17.97
2022-12-22T16:06:13.695Z,14.60
2022-12-22T16:08:43.416Z,17.97
2022-12-22T16:11:10.617Z,13.90
2022-12-22T16:13:37.839Z,18.60
2022-12-22T16:16:05.157Z,18.30
2022-12-22T16:18:32.973Z,17.13
2022-12-22T16:21:08.032Z,13.40
2022-12-22T16:23:35.894Z,13.23
2022-12-22T16:26:03.705Z,12.23
2022-12-22T16:28:31.017Z,12.53
2022-12-22T16:30:57.728Z,13.67
2022-12-22T16:33:24.661Z,13.43
2022-12-22T16:35:51.354Z,18.63
2022-12-22T16:38:19.276Z,13.10
2022-12-22T16:40:51.483Z,15.93
2022-12-22T16:46:13.452Z,15.27
2022-12-22T16:48:43.526Z,48.30
2022-12-22T16:51:18.216Z,51.83
2022-12-22T16:53:44.975Z,70.60
2022-12-22T16:56:18.120Z,56.93
2022-12-22T16:58:45.852Z,29.67
2022-12-22T17:01:36.879Z,32.40
2022-12-22T17:04:11.150Z,37.50
2022-12-22T17:09:13.063Z,16.23
2022-12-22T17:11:42.514Z,16.67
2022-12-22T17:14:19.436Z,18.80
2022-12-22T17:16:46.149Z,18.23
2022-12-22T17:19:12.808Z,16.47
2022-12-22T17:21:39.582Z,16.33
2022-12-22T17:24:07.273Z,16.97
2022-12-22T17:26:34.639Z,17.80
2022-12-22T17:29:01.630Z,20.50
2022-12-22T17:31:28.857Z,15.63
2022-12-22T17:33:56.731Z,18.20
2022-12-22T17:36:32.362Z,21.43
2022-12-22T17:39:01.313Z,23.87
2022-12-22T17:41:28.108Z,21.97
2022-12-22T17:43:54.802Z,19.27
2022-12-22T17:46:22.121Z,19.80
2022-12-22T17:48:49.159Z,17.07
2022-12-22T17:51:28.273Z,18.20
2022-12-22T17:53:57.039Z,17.90
2022-12-22T17:56:25.420Z,19.87
2022-12-22T17:58:52.191Z,18.07
2022-12-22T18:01:27.869Z,17.03
2022-12-22T18:03:55.192Z,22.50
2022-12-22T18:06:25.714Z,19.10
2022-12-22T18:08:53.526Z,18.33
2022-12-22T18:11:20.428Z,16.87
2022-12-22T18:13:47.119Z,18.03
2022-12-22T18:16:16.257Z,16.77
2022-12-22T18:18:43.707Z,16.83
2022-12-22T18:21:20.143Z,17.53
2022-12-22T18:23:50.234Z,19.57
2022-12-22T18:26:21.227Z,16.83
2022-12-22T18:28:48.769Z,16.70
2022-12-22T18:31:15.505Z,15.90
2022-12-22T18:33:42.194Z,14.50
2022-12-22T18:36:16.608Z,15.33
2022-12-22T18:38:44.829Z,16.97
2022-12-22T18:41:17.145Z,16.00
2022-12-22T18:43:44.182Z,14.57
2022-12-22T18:46:11.392Z,15.50
2022-12-22T18:48:38.159Z,16.83
2022-12-22T18:51:17.296Z,21.23
2022-12-22T18:53:44.494Z,20.23
2022-12-22T18:56:14.595Z,17.17
2022-12-22T18:58:41.961Z,19.23
2022-12-22T19:01:17.373Z,24.90
2022-12-22T19:03:45.694Z,25.13
2022-12-22T19:06:13.718Z,24.67
2022-12-22T19:08:45.769Z,27.17
2022-12-22T19:11:13.792Z,27.17
2022-12-22T19:13:46.590Z,25.93
2022-12-22T19:16:16.004Z,29.20
2022-12-22T19:18:42.921Z,27.97
2022-12-22T19:21:13.271Z,33.20
2022-12-22T19:23:40.365Z,27.23
2022-12-22T19:26:09.497Z,30.50
2022-12-22T19:28:42.399Z,34.23
2022-12-22T19:31:11.628Z,32.67
2022-12-22T19:33:41.593Z,31.60
2022-12-22T19:36:16.518Z,40.80
2022-12-22T19:38:49.895Z,41.87
2022-12-22T19:41:30.494Z,42.67
2022-12-22T19:43:57.265Z,39.07
2022-12-22T19:46:26.110Z,38.57
2022-12-22T19:48:52.848Z,41.27
2022-12-22T19:51:19.682Z,36.33
2022-12-22T19:53:46.322Z,35.07
2022-12-22T19:56:21.463Z,31.10
2022-12-22T19:58:48.310Z,37.03
2022-12-22T20:01:15.088Z,36.23
2022-12-22T20:03:41.823Z,36.67
2022-12-22T20:06:08.967Z,37.07
2022-12-22T20:08:35.778Z,31.80
2022-12-22T20:11:02.714Z,35.07
2022-12-22T20:13:31.834Z,33.93
2022-12-22T20:15:58.997Z,33.67
2022-12-22T20:18:28.322Z,29.77
2022-12-22T20:21:04.544Z,32.33
2022-12-22T20:23:34.339Z,32.00
2022-12-22T20:26:04.252Z,26.90
2022-12-22T20:28:34.453Z,31.60
2022-12-22T20:31:02.667Z,30.37
2022-12-22T20:33:29.560Z,28.73
2022-12-22T20:35:58.169Z,34.60
2022-12-22T20:38:36.082Z,33.40
2022-12-22T20:41:05.064Z,29.27
2022-12-22T20:43:32.636Z,33.80
2022-12-22T20:46:22.982Z,31.07
2022-12-22T20:48:53.805Z,31.93
2022-12-22T20:51:21.518Z,30.37
2022-12-22T20:53:50.124Z,35.53
2022-12-22T20:56:26.953Z,30.63
2022-12-22T20:58:54.704Z,29.27
2022-12-22T21:01:21.643Z,31.13
2022-12-22T21:03:48.425Z,32.60
2022-12-22T21:06:29.277Z,32.53
2022-12-22T21:08:58.137Z,29.67
2022-12-22T21:11:25.171Z,32.53
2022-12-22T21:13:52.688Z,31.37
2022-12-22T21:16:23.163Z,33.77
2022-12-22T21:18:50.759Z,33.00
2022-12-22T21:21:17.371Z,31.60
2022-12-22T21:23:44.003Z,31.73
2022-12-22T21:26:19.110Z,28.80
2022-12-22T21:28:45.988Z,27.03
2022-12-22T21:31:12.610Z,35.43
2022-12-22T21:33:39.307Z,33.13
2022-12-22T21:36:15.554Z,33.20
2022-12-22T21:38:42.163Z,34.10
2022-12-22T21:41:08.879Z,34.60
2022-12-22T21:43:35.544Z,35.13
2022-12-22T21:46:02.389Z,33.63
2022-12-22T21:48:29.077Z,31.87
2022-12-22T21:50:55.759Z,28.80
2022-12-22T21:53:22.904Z,31.57
2022-12-22T21:55:52.160Z,32.37
2022-12-22T21:58:18.777Z,30.23
2022-12-22T22:00:48.167Z,26.30
2022-12-22T22:03:15.966Z,29.17
2022-12-22T22:05:43.152Z,32.40
2022-12-22T22:08:11.200Z,37.60
2022-12-22T22:10:40.331Z,32.50
2022-12-22T22:13:07.083Z,35.20
2022-12-22T22:16:14.829Z,30.93
2022-12-22T22:18:43.398Z,27.50
2022-12-22T22:21:11.041Z,25.90
2022-12-22T22:23:37.786Z,31.67
2022-12-22T22:26:05.176Z,32.03
2022-12-22T22:28:32.471Z,31.47
2022-12-22T22:30:59.872Z,29.10
2022-12-22T22:33:26.540Z,28.13
2022-12-22T22:35:53.992Z,27.37
2022-12-22T22:38:21.259Z,31.20
2022-12-22T22:40:49.104Z,35.43
2022-12-22T22:43:16.082Z,27.97
2022-12-22T22:45:46.505Z,28.43
2022-12-22T22:48:19.811Z,32.67
2022-12-22T22:50:46.463Z,28.63
2022-12-22T22:53:13.136Z,30.87
2022-12-22T22:55:39.821Z,36.30
2022-12-22T22:58:07.494Z,29.20
2022-12-22T23:00:34.246Z,28.20
2022-12-22T23:03:01.256Z,30.07
2022-12-22T23:05:27.996Z,29.77
2022-12-22T23:07:54.888Z,32.53
2022-12-22T23:10:21.517Z,34.10
2022-12-22T23:12:48.136Z,28.43
2022-12-22T23:15:15.166Z,28.63
2022-12-22T23:17:42.037Z,31.77
2022-12-22T23:20:11.570Z,33.17
2022-12-22T23:22:38.194Z,31.27
2022-12-22T23:25:05.079Z,29.77
2022-12-22T23:27:31.734Z,31.37
2022-12-22T23:29:58.357Z,30.17
2022-12-22T23:32:25.019Z,31.83
2022-12-22T23:34:53.297Z,34.47
2022-12-22T23:37:20.031Z,35.73
2022-12-22T23:39:49.092Z,32.17
2022-12-22T23:42:15.748Z,30.87
2022-12-22T23:44:42.361Z,29.10
2022-12-22T23:47:09.451Z,32.37
2022-12-22T23:49:36.314Z,28.03
2022-12-22T23:52:03.030Z,34.07
2022-12-22T23:54:30.400Z,29.17
2022-12-22T23:56:57.590Z,27.80
2022-12-22T23:59:24.257Z,29.07
